sensor_id;sensor_type;location;lat;lon;timestamp;temperature;humidity
15483;DHT22;7843;50.330;7.312;2023-06-04T00:00:17;12.20;81.80
15483;DHT22;7843;50.330;7.312;2023-06-04T00:02:43;12.10;82.20
15483;DHT22;7843;50.330;7.312;2023-06-04T00:05:10;12.10;82.00
15483;DHT22;7843;50.330;7.312;2023-06-04T00:07:37;11.90;81.90
15483;DHT22;7843;50.330;7.312;2023-06-04T00:10:05;11.80;82.20
15483;DHT22;7843;50.330;7.312;2023-06-04T00:12:32;11.70;82.70
15483;DHT22;7843;50.330;7.312;2023-06-04T00:14:59;11.60;82.90
15483;DHT22;7843;50.330;7.312;2023-06-04T00:17:25;11.80;82.90
15483;DHT22;7843;50.330;7.312;2023-06-04T00:19:52;11.80;82.40
15483;DHT22;7843;50.330;7.312;2023-06-04T00:22:19;11.70;82.40
15483;DHT22;7843;50.330;7.312;2023-06-04T00:24:46;11.70;82.00
15483;DHT22;7843;50.330;7.312;2023-06-04T00:27:12;11.60;82.40
15483;DHT22;7843;50.330;7.312;2023-06-04T00:29:39;11.50;82.60
15483;DHT22;7843;50.330;7.312;2023-06-04T00:32:06;11.60;83.00
15483;DHT22;7843;50.330;7.312;2023-06-04T00:34:33;11.70;83.20
15483;DHT22;7843;50.330;7.312;2023-06-04T00:37:00;11.60;82.70
15483;DHT22;7843;50.330;7.312;2023-06-04T00:39:28;11.60;83.20
15483;DHT22;7843;50.330;7.312;2023-06-04T00:41:55;11.60;83.60
15483;DHT22;7843;50.330;7.312;2023-06-04T00:44:22;11.50;83.60
15483;DHT22;7843;50.330;7.312;2023-06-04T00:46:51;11.50;84.10
15483;DHT22;7843;50.330;7.312;2023-06-04T00:49:20;11.40;83.50
15483;DHT22;7843;50.330;7.312;2023-06-04T00:51:47;11.40;83.60
15483;DHT22;7843;50.330;7.312;2023-06-04T00:54:14;11.30;83.50
15483;DHT22;7843;50.330;7.312;2023-06-04T00:56:42;11.40;83.90
15483;DHT22;7843;50.330;7.312;2023-06-04T00:59:10;11.30;84.40
15483;DHT22;7843;50.330;7.312;2023-06-04T01:01:54;11.30;84.10
15483;DHT22;7843;50.330;7.312;2023-06-04T01:04:29;11.30;84.20
15483;DHT22;7843;50.330;7.312;2023-06-04T01:06:57;11.20;84.60
15483;DHT22;7843;50.330;7.312;2023-06-04T01:09:26;11.10;84.40
15483;DHT22;7843;50.330;7.312;2023-06-04T01:11:54;11.10;84.90
15483;DHT22;7843;50.330;7.312;2023-06-04T01:14:24;11.10;85.20
15483;DHT22;7843;50.330;7.312;2023-06-04T01:16:59;11.00;86.00
15483;DHT22;7843;50.330;7.312;2023-06-04T01:22:28;10.90;85.90
15483;DHT22;7843;50.330;7.312;2023-06-04T01:25:05;10.90;86.20
15483;DHT22;7843;50.330;7.312;2023-06-04T01:27:32;10.80;86.00
15483;DHT22;7843;50.330;7.312;2023-06-04T01:29:59;10.70;86.10
15483;DHT22;7843;50.330;7.312;2023-06-04T01:32:27;10.70;86.30
15483;DHT22;7843;50.330;7.312;2023-06-04T01:34:54;10.70;86.30
15483;DHT22;7843;50.330;7.312;2023-06-04T01:37:21;10.70;86.60
15483;DHT22;7843;50.330;7.312;2023-06-04T01:39:48;10.70;87.00
15483;DHT22;7843;50.330;7.312;2023-06-04T01:42:15;10.60;86.90
15483;DHT22;7843;50.330;7.312;2023-06-04T01:44:41;10.50;87.10
15483;DHT22;7843;50.330;7.312;2023-06-04T01:47:08;10.40;87.50
15483;DHT22;7843;50.330;7.312;2023-06-04T01:49:35;10.40;87.60
15483;DHT22;7843;50.330;7.312;2023-06-04T01:52:04;10.40;87.80
15483;DHT22;7843;50.330;7.312;2023-06-04T01:54:32;10.40;87.70
15483;DHT22;7843;50.330;7.312;2023-06-04T01:57:00;10.40;87.80
15483;DHT22;7843;50.330;7.312;2023-06-04T01:59:27;10.50;87.90
15483;DHT22;7843;50.330;7.312;2023-06-04T02:01:54;10.40;88.20
15483;DHT22;7843;50.330;7.312;2023-06-04T02:04:20;10.30;88.20
15483;DHT22;7843;50.330;7.312;2023-06-04T02:06:47;10.20;88.60
15483;DHT22;7843;50.330;7.312;2023-06-04T02:09:15;10.10;89.10
15483;DHT22;7843;50.330;7.312;2023-06-04T02:11:42;10.10;89.20
15483;DHT22;7843;50.330;7.312;2023-06-04T02:14:09;10.00;89.40
15483;DHT22;7843;50.330;7.312;2023-06-04T02:16:35;10.00;89.40
15483;DHT22;7843;50.330;7.312;2023-06-04T02:19:04;10.00;89.20
15483;DHT22;7843;50.330;7.312;2023-06-04T02:21:31;10.00;89.50
15483;DHT22;7843;50.330;7.312;2023-06-04T02:23:58;10.00;89.80
15483;DHT22;7843;50.330;7.312;2023-06-04T02:26:24;9.90;89.60
15483;DHT22;7843;50.330;7.312;2023-06-04T02:28:51;9.90;89.50
15483;DHT22;7843;50.330;7.312;2023-06-04T02:31:18;9.80;89.90
15483;DHT22;7843;50.330;7.312;2023-06-04T02:33:45;9.80;89.90
15483;DHT22;7843;50.330;7.312;2023-06-04T02:36:11;9.80;90.20
15483;DHT22;7843;50.330;7.312;2023-06-04T02:38:38;9.80;90.40
15483;DHT22;7843;50.330;7.312;2023-06-04T02:41:05;9.70;90.30
15483;DHT22;7843;50.330;7.312;2023-06-04T02:43:32;9.80;90.50
15483;DHT22;7843;50.330;7.312;2023-06-04T02:45:59;9.80;90.70
15483;DHT22;7843;50.330;7.312;2023-06-04T02:48:26;9.70;90.90
15483;DHT22;7843;50.330;7.312;2023-06-04T02:50:52;9.70;90.70
15483;DHT22;7843;50.330;7.312;2023-06-04T02:53:19;9.60;90.60
15483;DHT22;7843;50.330;7.312;2023-06-04T02:55:47;9.60;90.90
15483;DHT22;7843;50.330;7.312;2023-06-04T02:58:14;9.60;91.00
15483;DHT22;7843;50.330;7.312;2023-06-04T03:00:40;9.60;91.10
15483;DHT22;7843;50.330;7.312;2023-06-04T03:03:07;9.60;91.00
15483;DHT22;7843;50.330;7.312;2023-06-04T03:05:34;9.50;91.30
15483;DHT22;7843;50.330;7.312;2023-06-04T03:08:02;9.40;91.20
15483;DHT22;7843;50.330;7.312;2023-06-04T03:10:30;9.40;91.50
15483;DHT22;7843;50.330;7.312;2023-06-04T03:12:58;9.50;91.40
15483;DHT22;7843;50.330;7.312;2023-06-04T03:15:24;9.40;91.80
15483;DHT22;7843;50.330;7.312;2023-06-04T03:17:51;9.40;91.90
15483;DHT22;7843;50.330;7.312;2023-06-04T03:20:18;9.40;91.90
15483;DHT22;7843;50.330;7.312;2023-06-04T03:22:45;9.40;92.00
15483;DHT22;7843;50.330;7.312;2023-06-04T03:25:11;9.40;91.80
15483;DHT22;7843;50.330;7.312;2023-06-04T03:27:38;9.30;91.80
15483;DHT22;7843;50.330;7.312;2023-06-04T03:30:05;9.40;92.10
15483;DHT22;7843;50.330;7.312;2023-06-04T03:32:32;9.40;92.00
15483;DHT22;7843;50.330;7.312;2023-06-04T03:35:00;9.40;91.90
15483;DHT22;7843;50.330;7.312;2023-06-04T03:37:27;9.30;91.80
15483;DHT22;7843;50.330;7.312;2023-06-04T03:39:54;9.40;91.80
15483;DHT22;7843;50.330;7.312;2023-06-04T03:42:21;9.40;92.00
15483;DHT22;7843;50.330;7.312;2023-06-04T03:44:48;9.40;91.90
15483;DHT22;7843;50.330;7.312;2023-06-04T03:47:14;9.30;92.20
15483;DHT22;7843;50.330;7.312;2023-06-04T03:49:41;9.40;92.20
15483;DHT22;7843;50.330;7.312;2023-06-04T03:52:08;9.50;92.00
15483;DHT22;7843;50.330;7.312;2023-06-04T03:54:34;9.50;92.10
15483;DHT22;7843;50.330;7.312;2023-06-04T03:57:01;9.60;91.60
15483;DHT22;7843;50.330;7.312;2023-06-04T03:59:28;9.70;91.30
15483;DHT22;7843;50.330;7.312;2023-06-04T04:01:55;9.70;91.40
15483;DHT22;7843;50.330;7.312;2023-06-04T04:04:21;9.80;91.10
15483;DHT22;7843;50.330;7.312;2023-06-04T04:06:51;9.80;91.10
15483;DHT22;7843;50.330;7.312;2023-06-04T04:09:18;9.80;91.20
15483;DHT22;7843;50.330;7.312;2023-06-04T04:11:45;9.90;91.10
15483;DHT22;7843;50.330;7.312;2023-06-04T04:14:12;10.00;91.50
15483;DHT22;7843;50.330;7.312;2023-06-04T04:16:38;10.00;91.20
15483;DHT22;7843;50.330;7.312;2023-06-04T04:19:06;10.00;90.90
15483;DHT22;7843;50.330;7.312;2023-06-04T04:21:35;10.10;91.30
15483;DHT22;7843;50.330;7.312;2023-06-04T04:24:03;10.20;91.40
15483;DHT22;7843;50.330;7.312;2023-06-04T04:26:30;10.20;90.60
15483;DHT22;7843;50.330;7.312;2023-06-04T04:28:57;10.30;90.50
15483;DHT22;7843;50.330;7.312;2023-06-04T04:31:24;10.40;90.80
15483;DHT22;7843;50.330;7.312;2023-06-04T04:33:51;10.40;90.60
15483;DHT22;7843;50.330;7.312;2023-06-04T04:36:18;10.40;90.70
15483;DHT22;7843;50.330;7.312;2023-06-04T04:38:46;10.50;91.20
15483;DHT22;7843;50.330;7.312;2023-06-04T04:41:20;10.60;91.00
15483;DHT22;7843;50.330;7.312;2023-06-04T04:43:49;10.60;90.80
15483;DHT22;7843;50.330;7.312;2023-06-04T04:46:16;10.80;90.70
15483;DHT22;7843;50.330;7.312;2023-06-04T04:48:43;10.90;90.60
15483;DHT22;7843;50.330;7.312;2023-06-04T04:51:10;11.00;90.10
15483;DHT22;7843;50.330;7.312;2023-06-04T04:53:36;11.10;90.40
15483;DHT22;7843;50.330;7.312;2023-06-04T04:56:03;11.10;90.30
15483;DHT22;7843;50.330;7.312;2023-06-04T04:58:30;11.30;90.80
15483;DHT22;7843;50.330;7.312;2023-06-04T05:00:57;11.30;90.40
15483;DHT22;7843;50.330;7.312;2023-06-04T05:03:24;11.40;90.90
15483;DHT22;7843;50.330;7.312;2023-06-04T05:05:51;11.50;90.20
15483;DHT22;7843;50.330;7.312;2023-06-04T05:08:17;11.60;90.00
15483;DHT22;7843;50.330;7.312;2023-06-04T05:10:44;11.70;90.20
15483;DHT22;7843;50.330;7.312;2023-06-04T05:13:12;11.80;89.70
15483;DHT22;7843;50.330;7.312;2023-06-04T05:15:39;11.80;89.40
15483;DHT22;7843;50.330;7.312;2023-06-04T05:18:09;12.00;88.80
15483;DHT22;7843;50.330;7.312;2023-06-04T05:20:35;12.10;88.90
15483;DHT22;7843;50.330;7.312;2023-06-04T05:23:04;12.20;89.20
15483;DHT22;7843;50.330;7.312;2023-06-04T05:25:31;12.40;89.70
15483;DHT22;7843;50.330;7.312;2023-06-04T05:27:58;12.50;90.20
15483;DHT22;7843;50.330;7.312;2023-06-04T05:30:24;12.70;90.50
15483;DHT22;7843;50.330;7.312;2023-06-04T05:32:51;12.80;89.60
15483;DHT22;7843;50.330;7.312;2023-06-04T05:35:20;12.90;89.30
15483;DHT22;7843;50.330;7.312;2023-06-04T05:37:46;13.10;89.10
15483;DHT22;7843;50.330;7.312;2023-06-04T05:40:20;13.20;89.20
15483;DHT22;7843;50.330;7.312;2023-06-04T05:42:48;13.30;88.40
15483;DHT22;7843;50.330;7.312;2023-06-04T05:45:15;13.40;88.00
15483;DHT22;7843;50.330;7.312;2023-06-04T05:47:41;13.50;87.00
15483;DHT22;7843;50.330;7.312;2023-06-04T05:50:09;13.70;86.10
15483;DHT22;7843;50.330;7.312;2023-06-04T05:52:35;13.90;84.20
15483;DHT22;7843;50.330;7.312;2023-06-04T05:55:04;14.10;82.80
15483;DHT22;7843;50.330;7.312;2023-06-04T05:57:33;14.10;83.20
15483;DHT22;7843;50.330;7.312;2023-06-04T06:00:00;14.20;82.80
15483;DHT22;7843;50.330;7.312;2023-06-04T06:02:27;14.30;83.80
15483;DHT22;7843;50.330;7.312;2023-06-04T06:04:54;14.40;82.10
15483;DHT22;7843;50.330;7.312;2023-06-04T06:07:21;14.60;82.10
15483;DHT22;7843;50.330;7.312;2023-06-04T06:09:47;14.70;81.60
15483;DHT22;7843;50.330;7.312;2023-06-04T06:12:14;14.80;81.40
15483;DHT22;7843;50.330;7.312;2023-06-04T06:14:41;14.90;80.10
15483;DHT22;7843;50.330;7.312;2023-06-04T06:17:08;15.00;80.00
15483;DHT22;7843;50.330;7.312;2023-06-04T06:19:36;15.10;79.40
15483;DHT22;7843;50.330;7.312;2023-06-04T06:22:03;15.30;79.30
15483;DHT22;7843;50.330;7.312;2023-06-04T06:24:31;15.40;77.70
15483;DHT22;7843;50.330;7.312;2023-06-04T06:26:57;15.50;78.10
15483;DHT22;7843;50.330;7.312;2023-06-04T06:29:24;15.60;77.30
15483;DHT22;7843;50.330;7.312;2023-06-04T06:31:51;15.70;76.30
15483;DHT22;7843;50.330;7.312;2023-06-04T06:34:18;15.80;75.60
15483;DHT22;7843;50.330;7.312;2023-06-04T06:36:45;15.80;77.00
15483;DHT22;7843;50.330;7.312;2023-06-04T06:39:11;16.00;75.90
15483;DHT22;7843;50.330;7.312;2023-06-04T06:41:38;16.00;74.10
15483;DHT22;7843;50.330;7.312;2023-06-04T06:44:06;16.10;74.00
15483;DHT22;7843;50.330;7.312;2023-06-04T06:46:33;16.20;75.00
15483;DHT22;7843;50.330;7.312;2023-06-04T06:48:59;16.30;74.20
15483;DHT22;7843;50.330;7.312;2023-06-04T06:51:26;16.40;74.30
15483;DHT22;7843;50.330;7.312;2023-06-04T06:53:53;16.50;75.50
15483;DHT22;7843;50.330;7.312;2023-06-04T06:56:20;16.60;75.20
15483;DHT22;7843;50.330;7.312;2023-06-04T06:58:46;16.60;73.30
15483;DHT22;7843;50.330;7.312;2023-06-04T07:01:13;16.70;72.90
15483;DHT22;7843;50.330;7.312;2023-06-04T07:03:40;16.80;73.40
15483;DHT22;7843;50.330;7.312;2023-06-04T07:06:07;16.90;70.60
15483;DHT22;7843;50.330;7.312;2023-06-04T07:08:33;17.00;70.40
15483;DHT22;7843;50.330;7.312;2023-06-04T07:11:02;17.00;71.00
15483;DHT22;7843;50.330;7.312;2023-06-04T07:13:29;17.10;70.90
15483;DHT22;7843;50.330;7.312;2023-06-04T07:15:58;17.10;69.40
15483;DHT22;7843;50.330;7.312;2023-06-04T07:18:27;17.20;68.90
15483;DHT22;7843;50.330;7.312;2023-06-04T07:20:53;17.20;69.70
15483;DHT22;7843;50.330;7.312;2023-06-04T07:23:21;17.30;70.70
15483;DHT22;7843;50.330;7.312;2023-06-04T07:25:48;17.60;70.90
15483;DHT22;7843;50.330;7.312;2023-06-04T07:28:15;17.60;69.60
15483;DHT22;7843;50.330;7.312;2023-06-04T07:30:44;17.70;69.40
15483;DHT22;7843;50.330;7.312;2023-06-04T07:33:11;17.80;68.70
15483;DHT22;7843;50.330;7.312;2023-06-04T07:35:38;17.90;69.80
15483;DHT22;7843;50.330;7.312;2023-06-04T07:38:04;18.00;68.70
15483;DHT22;7843;50.330;7.312;2023-06-04T07:40:31;18.00;68.10
15483;DHT22;7843;50.330;7.312;2023-06-04T07:42:58;18.00;68.40
15483;DHT22;7843;50.330;7.312;2023-06-04T07:45:24;18.10;69.10
15483;DHT22;7843;50.330;7.312;2023-06-04T07:47:52;18.30;70.00
15483;DHT22;7843;50.330;7.312;2023-06-04T07:50:19;18.30;67.10
15483;DHT22;7843;50.330;7.312;2023-06-04T07:52:46;18.50;68.90
15483;DHT22;7843;50.330;7.312;2023-06-04T07:55:12;18.60;67.50
15483;DHT22;7843;50.330;7.312;2023-06-04T07:57:39;18.70;66.20
15483;DHT22;7843;50.330;7.312;2023-06-04T08:00:06;18.70;66.00
15483;DHT22;7843;50.330;7.312;2023-06-04T08:02:34;18.70;66.40
15483;DHT22;7843;50.330;7.312;2023-06-04T08:05:01;18.80;66.20
15483;DHT22;7843;50.330;7.312;2023-06-04T08:07:29;18.90;66.40
15483;DHT22;7843;50.330;7.312;2023-06-04T08:09:56;19.00;66.50
15483;DHT22;7843;50.330;7.312;2023-06-04T08:12:23;19.20;67.10
15483;DHT22;7843;50.330;7.312;2023-06-04T08:14:49;19.20;65.80
15483;DHT22;7843;50.330;7.312;2023-06-04T08:17:23;19.30;64.20
15483;DHT22;7843;50.330;7.312;2023-06-04T08:19:50;19.30;63.90
15483;DHT22;7843;50.330;7.312;2023-06-04T08:22:17;19.40;65.10
15483;DHT22;7843;50.330;7.312;2023-06-04T08:24:43;19.50;64.80
15483;DHT22;7843;50.330;7.312;2023-06-04T08:27:10;19.50;63.40
15483;DHT22;7843;50.330;7.312;2023-06-04T08:29:37;19.60;64.20
15483;DHT22;7843;50.330;7.312;2023-06-04T08:32:05;19.70;64.50
15483;DHT22;7843;50.330;7.312;2023-06-04T08:34:34;19.90;65.20
15483;DHT22;7843;50.330;7.312;2023-06-04T08:37:00;20.00;63.30
15483;DHT22;7843;50.330;7.312;2023-06-04T08:39:27;20.00;62.30
15483;DHT22;7843;50.330;7.312;2023-06-04T08:41:59;20.10;62.70
15483;DHT22;7843;50.330;7.312;2023-06-04T08:44:27;20.10;62.40
15483;DHT22;7843;50.330;7.312;2023-06-04T08:47:01;20.20;62.60
15483;DHT22;7843;50.330;7.312;2023-06-04T08:49:33;20.30;62.60
15483;DHT22;7843;50.330;7.312;2023-06-04T08:52:02;20.40;60.30
15483;DHT22;7843;50.330;7.312;2023-06-04T08:54:29;20.50;62.30
15483;DHT22;7843;50.330;7.312;2023-06-04T08:56:57;20.70;61.50
15483;DHT22;7843;50.330;7.312;2023-06-04T08:59:27;20.70;61.00
15483;DHT22;7843;50.330;7.312;2023-06-04T09:01:54;20.70;60.90
15483;DHT22;7843;50.330;7.312;2023-06-04T09:04:22;20.80;60.70
15483;DHT22;7843;50.330;7.312;2023-06-04T09:06:49;20.90;60.60
15483;DHT22;7843;50.330;7.312;2023-06-04T09:09:17;21.00;60.90
15483;DHT22;7843;50.330;7.312;2023-06-04T09:14:14;21.20;63.00
15483;DHT22;7843;50.330;7.312;2023-06-04T09:16:47;21.30;60.90
15483;DHT22;7843;50.330;7.312;2023-06-04T09:19:15;21.30;60.60
15483;DHT22;7843;50.330;7.312;2023-06-04T09:21:55;21.40;59.70
15483;DHT22;7843;50.330;7.312;2023-06-04T09:24:38;21.50;60.80
15483;DHT22;7843;50.330;7.312;2023-06-04T09:27:14;21.60;59.40
15483;DHT22;7843;50.330;7.312;2023-06-04T09:29:52;21.70;59.20
15483;DHT22;7843;50.330;7.312;2023-06-04T09:34:49;21.90;58.50
15483;DHT22;7843;50.330;7.312;2023-06-04T09:37:16;21.80;58.30
15483;DHT22;7843;50.330;7.312;2023-06-04T09:39:55;22.00;58.50
15483;DHT22;7843;50.330;7.312;2023-06-04T09:42:25;22.10;57.70
15483;DHT22;7843;50.330;7.312;2023-06-04T09:44:52;22.30;58.60
15483;DHT22;7843;50.330;7.312;2023-06-04T09:47:19;22.30;57.60
15483;DHT22;7843;50.330;7.312;2023-06-04T09:49:47;22.40;57.60
15483;DHT22;7843;50.330;7.312;2023-06-04T09:52:17;22.50;58.00
15483;DHT22;7843;50.330;7.312;2023-06-04T09:54:43;22.60;58.10
15483;DHT22;7843;50.330;7.312;2023-06-04T09:57:18;22.90;59.50
15483;DHT22;7843;50.330;7.312;2023-06-04T09:59:46;22.80;56.80
15483;DHT22;7843;50.330;7.312;2023-06-04T10:02:19;22.90;55.90
15483;DHT22;7843;50.330;7.312;2023-06-04T10:04:55;23.00;56.40
15483;DHT22;7843;50.330;7.312;2023-06-04T10:07:25;23.10;55.50
15483;DHT22;7843;50.330;7.312;2023-06-04T10:09:52;23.10;56.00
15483;DHT22;7843;50.330;7.312;2023-06-04T10:12:29;23.10;55.90
15483;DHT22;7843;50.330;7.312;2023-06-04T10:15:10;23.10;54.10
15483;DHT22;7843;50.330;7.312;2023-06-04T10:17:37;23.20;54.30
15483;DHT22;7843;50.330;7.312;2023-06-04T10:20:06;23.30;53.50
15483;DHT22;7843;50.330;7.312;2023-06-04T10:22:35;23.40;53.80
15483;DHT22;7843;50.330;7.312;2023-06-04T10:25:02;23.50;53.10
15483;DHT22;7843;50.330;7.312;2023-06-04T10:27:33;23.60;53.80
15483;DHT22;7843;50.330;7.312;2023-06-04T10:30:04;23.70;54.00
15483;DHT22;7843;50.330;7.312;2023-06-04T10:32:31;23.80;52.10
15483;DHT22;7843;50.330;7.312;2023-06-04T10:34:58;23.90;53.50
15483;DHT22;7843;50.330;7.312;2023-06-04T10:37:26;24.00;52.20
15483;DHT22;7843;50.330;7.312;2023-06-04T10:39:56;24.10;54.30
15483;DHT22;7843;50.330;7.312;2023-06-04T10:42:24;24.20;53.30
15483;DHT22;7843;50.330;7.312;2023-06-04T10:44:53;24.40;52.20
15483;DHT22;7843;50.330;7.312;2023-06-04T10:47:26;24.30;51.60
15483;DHT22;7843;50.330;7.312;2023-06-04T10:49:55;24.20;51.00
15483;DHT22;7843;50.330;7.312;2023-06-04T10:52:32;24.30;51.90
15483;DHT22;7843;50.330;7.312;2023-06-04T10:55:06;24.40;51.60
15483;DHT22;7843;50.330;7.312;2023-06-04T10:57:34;24.60;52.10
15483;DHT22;7843;50.330;7.312;2023-06-04T11:00:03;24.70;51.20
15483;DHT22;7843;50.330;7.312;2023-06-04T11:02:32;24.80;50.40
15483;DHT22;7843;50.330;7.312;2023-06-04T11:05:04;25.00;50.80
15483;DHT22;7843;50.330;7.312;2023-06-04T11:07:43;25.10;50.00
15483;DHT22;7843;50.330;7.312;2023-06-04T11:10:11;25.20;49.20
15483;DHT22;7843;50.330;7.312;2023-06-04T11:12:48;25.30;50.40
15483;DHT22;7843;50.330;7.312;2023-06-04T11:15:17;25.40;48.40
15483;DHT22;7843;50.330;7.312;2023-06-04T11:17:57;25.50;48.80
15483;DHT22;7843;50.330;7.312;2023-06-04T11:20:27;25.60;49.20
15483;DHT22;7843;50.330;7.312;2023-06-04T11:22:58;25.70;49.40
15483;DHT22;7843;50.330;7.312;2023-06-04T11:25:26;25.90;48.50
15483;DHT22;7843;50.330;7.312;2023-06-04T11:27:55;26.10;49.00
15483;DHT22;7843;50.330;7.312;2023-06-04T11:30:24;26.30;48.10
15483;DHT22;7843;50.330;7.312;2023-06-04T11:33:03;26.50;49.00
15483;DHT22;7843;50.330;7.312;2023-06-04T11:35:30;26.70;47.20
15483;DHT22;7843;50.330;7.312;2023-06-04T11:37:58;26.90;46.90
15483;DHT22;7843;50.330;7.312;2023-06-04T11:40:25;26.90;47.50
15483;DHT22;7843;50.330;7.312;2023-06-04T11:42:53;27.20;45.70
15483;DHT22;7843;50.330;7.312;2023-06-04T11:45:21;27.40;46.20
15483;DHT22;7843;50.330;7.312;2023-06-04T11:47:56;27.70;47.00
15483;DHT22;7843;50.330;7.312;2023-06-04T11:50:27;28.00;45.50
15483;DHT22;7843;50.330;7.312;2023-06-04T11:52:54;28.20;45.30
15483;DHT22;7843;50.330;7.312;2023-06-04T11:55:21;28.30;46.00
15483;DHT22;7843;50.330;7.312;2023-06-04T11:57:49;28.50;45.30
15483;DHT22;7843;50.330;7.312;2023-06-04T12:00:17;28.70;45.20
15483;DHT22;7843;50.330;7.312;2023-06-04T12:02:54;28.80;44.70
15483;DHT22;7843;50.330;7.312;2023-06-04T12:05:23;28.90;45.20
15483;DHT22;7843;50.330;7.312;2023-06-04T12:08:07;28.90;43.60
15483;DHT22;7843;50.330;7.312;2023-06-04T12:10:39;29.20;42.80
15483;DHT22;7843;50.330;7.312;2023-06-04T12:13:06;29.20;42.70
15483;DHT22;7843;50.330;7.312;2023-06-04T12:15:33;29.20;44.20
15483;DHT22;7843;50.330;7.312;2023-06-04T12:17:59;29.40;43.80
15483;DHT22;7843;50.330;7.312;2023-06-04T12:20:39;29.50;43.50
15483;DHT22;7843;50.330;7.312;2023-06-04T12:23:07;29.60;44.10
15483;DHT22;7843;50.330;7.312;2023-06-04T12:25:35;29.90;43.60
15483;DHT22;7843;50.330;7.312;2023-06-04T12:28:03;30.00;43.60
15483;DHT22;7843;50.330;7.312;2023-06-04T12:30:38;30.20;44.70
15483;DHT22;7843;50.330;7.312;2023-06-04T12:33:05;30.30;43.70
15483;DHT22;7843;50.330;7.312;2023-06-04T12:35:33;30.40;41.90
15483;DHT22;7843;50.330;7.312;2023-06-04T12:38:03;30.40;41.10
15483;DHT22;7843;50.330;7.312;2023-06-04T12:40:30;30.60;41.30
15483;DHT22;7843;50.330;7.312;2023-06-04T12:42:57;30.80;39.70
15483;DHT22;7843;50.330;7.312;2023-06-04T12:45:24;31.10;40.80
15483;DHT22;7843;50.330;7.312;2023-06-04T12:47:50;31.50;40.80
15483;DHT22;7843;50.330;7.312;2023-06-04T12:50:17;31.80;40.50
15483;DHT22;7843;50.330;7.312;2023-06-04T12:52:46;31.80;41.30
15483;DHT22;7843;50.330;7.312;2023-06-04T12:55:13;31.90;40.80
15483;DHT22;7843;50.330;7.312;2023-06-04T12:57:39;31.80;41.20
15483;DHT22;7843;50.330;7.312;2023-06-04T13:00:06;32.00;41.00
15483;DHT22;7843;50.330;7.312;2023-06-04T13:02:33;32.00;40.20
15483;DHT22;7843;50.330;7.312;2023-06-04T13:05:00;31.90;40.40
15483;DHT22;7843;50.330;7.312;2023-06-04T13:07:27;31.60;39.50
15483;DHT22;7843;50.330;7.312;2023-06-04T13:09:54;32.10;41.00
15483;DHT22;7843;50.330;7.312;2023-06-04T13:12:20;32.30;39.60
15483;DHT22;7843;50.330;7.312;2023-06-04T13:14:47;32.30;40.60
15483;DHT22;7843;50.330;7.312;2023-06-04T13:17:14;32.40;40.00
15483;DHT22;7843;50.330;7.312;2023-06-04T13:19:47;32.30;40.30
15483;DHT22;7843;50.330;7.312;2023-06-04T13:22:13;32.40;38.50
15483;DHT22;7843;50.330;7.312;2023-06-04T13:24:41;32.40;38.30
15483;DHT22;7843;50.330;7.312;2023-06-04T13:27:07;32.60;40.40
15483;DHT22;7843;50.330;7.312;2023-06-04T13:29:34;32.60;39.10
15483;DHT22;7843;50.330;7.312;2023-06-04T13:32:01;32.50;39.30
15483;DHT22;7843;50.330;7.312;2023-06-04T13:34:28;32.70;38.80
15483;DHT22;7843;50.330;7.312;2023-06-04T13:36:54;32.80;39.30
15483;DHT22;7843;50.330;7.312;2023-06-04T13:41:49;32.70;39.10
15483;DHT22;7843;50.330;7.312;2023-06-04T13:44:16;32.50;39.70
15483;DHT22;7843;50.330;7.312;2023-06-04T13:46:42;32.50;39.80
15483;DHT22;7843;50.330;7.312;2023-06-04T13:49:09;32.60;39.40
15483;DHT22;7843;50.330;7.312;2023-06-04T13:51:36;32.50;40.00
15483;DHT22;7843;50.330;7.312;2023-06-04T13:54:03;32.40;39.30
15483;DHT22;7843;50.330;7.312;2023-06-04T13:56:29;32.60;40.40
15483;DHT22;7843;50.330;7.312;2023-06-04T13:58:56;33.00;38.70
15483;DHT22;7843;50.330;7.312;2023-06-04T14:01:23;32.60;38.60
15483;DHT22;7843;50.330;7.312;2023-06-04T14:03:49;32.60;39.90
15483;DHT22;7843;50.330;7.312;2023-06-04T14:06:16;32.60;39.10
15483;DHT22;7843;50.330;7.312;2023-06-04T14:08:43;32.40;38.90
15483;DHT22;7843;50.330;7.312;2023-06-04T14:11:10;32.10;38.60
15483;DHT22;7843;50.330;7.312;2023-06-04T14:13:37;31.90;38.70
15483;DHT22;7843;50.330;7.312;2023-06-04T14:16:05;31.70;40.90
15483;DHT22;7843;50.330;7.312;2023-06-04T14:18:32;31.70;40.10
15483;DHT22;7843;50.330;7.312;2023-06-04T14:20:59;31.60;39.40
15483;DHT22;7843;50.330;7.312;2023-06-04T14:23:25;31.60;38.80
15483;DHT22;7843;50.330;7.312;2023-06-04T14:25:53;31.70;40.90
15483;DHT22;7843;50.330;7.312;2023-06-04T14:28:19;31.70;40.30
15483;DHT22;7843;50.330;7.312;2023-06-04T14:30:47;31.80;40.80
15483;DHT22;7843;50.330;7.312;2023-06-04T14:33:14;31.60;39.70
15483;DHT22;7843;50.330;7.312;2023-06-04T14:35:40;31.80;39.60
15483;DHT22;7843;50.330;7.312;2023-06-04T14:38:13;31.70;39.40
15483;DHT22;7843;50.330;7.312;2023-06-04T14:40:41;31.70;40.10
15483;DHT22;7843;50.330;7.312;2023-06-04T14:43:12;31.70;38.50
15483;DHT22;7843;50.330;7.312;2023-06-04T14:45:39;31.70;39.30
15483;DHT22;7843;50.330;7.312;2023-06-04T14:48:07;31.70;39.20
15483;DHT22;7843;50.330;7.312;2023-06-04T14:50:40;31.70;40.20
15483;DHT22;7843;50.330;7.312;2023-06-04T14:53:06;31.60;39.40
15483;DHT22;7843;50.330;7.312;2023-06-04T14:55:35;31.40;39.10
15483;DHT22;7843;50.330;7.312;2023-06-04T14:58:02;31.20;39.60
15483;DHT22;7843;50.330;7.312;2023-06-04T15:00:30;31.10;39.60
15483;DHT22;7843;50.330;7.312;2023-06-04T15:02:57;31.10;39.30
15483;DHT22;7843;50.330;7.312;2023-06-04T15:05:24;30.90;39.50
15483;DHT22;7843;50.330;7.312;2023-06-04T15:07:51;30.70;39.90
15483;DHT22;7843;50.330;7.312;2023-06-04T15:10:18;30.50;38.90
15483;DHT22;7843;50.330;7.312;2023-06-04T15:12:45;30.30;40.60
15483;DHT22;7843;50.330;7.312;2023-06-04T15:15:12;30.30;40.10
15483;DHT22;7843;50.330;7.312;2023-06-04T15:17:38;30.10;40.80
15483;DHT22;7843;50.330;7.312;2023-06-04T15:20:06;29.90;40.00
15483;DHT22;7843;50.330;7.312;2023-06-04T15:22:33;29.70;42.10
15483;DHT22;7843;50.330;7.312;2023-06-04T15:25:00;29.60;42.10
15483;DHT22;7843;50.330;7.312;2023-06-04T15:27:27;29.80;42.40
15483;DHT22;7843;50.330;7.312;2023-06-04T15:29:54;29.60;41.40
15483;DHT22;7843;50.330;7.312;2023-06-04T15:32:21;29.50;42.80
15483;DHT22;7843;50.330;7.312;2023-06-04T15:34:48;29.40;42.20
15483;DHT22;7843;50.330;7.312;2023-06-04T15:37:15;29.40;42.20
15483;DHT22;7843;50.330;7.312;2023-06-04T15:39:41;29.40;43.00
15483;DHT22;7843;50.330;7.312;2023-06-04T15:42:08;29.40;42.90
15483;DHT22;7843;50.330;7.312;2023-06-04T15:44:35;29.40;42.50
15483;DHT22;7843;50.330;7.312;2023-06-04T15:47:02;29.30;43.10
15483;DHT22;7843;50.330;7.312;2023-06-04T15:49:29;29.30;42.60
15483;DHT22;7843;50.330;7.312;2023-06-04T15:51:57;29.20;41.50
15483;DHT22;7843;50.330;7.312;2023-06-04T15:54:23;29.00;42.60
15483;DHT22;7843;50.330;7.312;2023-06-04T15:56:59;29.10;42.60
15483;DHT22;7843;50.330;7.312;2023-06-04T15:59:25;29.20;42.60
15483;DHT22;7843;50.330;7.312;2023-06-04T16:01:52;29.10;43.60